Time;durP1;ratioP1;P1;durP2;ratioP2;P2;SDS_P1;SDS_P2;PMS_P1;PMS_P2;Temp;Humidity;BMP_temperature;BMP_pressure;BME280_temperature;BME280_humidity;BME280_pressure;Samples;Min_cycle;Max_cycle;Signal;HPM_P1;HPM_P2
2021/08/12 00:00:45;;;;;;;3.45;1.80;;;17.10;99.90;;;;;;10530098;28;20048;-64
2021/08/12 00:05:47;;;;;;;5.25;1.75;;;17.10;99.90;;;;;;10524081;28;20050;-64
2021/08/12 00:10:50;;;;;;;4.53;1.40;;;17.00;99.90;;;;;;10520024;28;20049;-64
2021/08/12 00:15:52;;;;;;;3.17;1.17;;;16.90;99.90;;;;;;10525451;28;20055;-64
2021/08/12 00:20:54;;;;;;;9.48;1.65;;;16.80;99.90;;;;;;10516513;28;20461;-64
2021/08/12 00:25:57;;;;;;;3.05;1.73;;;16.70;99.90;;;;;;10521062;28;20801;-64
2021/08/12 00:30:58;;;;;;;3.55;1.85;;;16.70;99.90;;;;;;10514368;28;20071;-63
2021/08/12 00:36:01;;;;;;;2.58;1.40;;;16.60;99.90;;;;;;10519028;28;20051;-64
2021/08/12 00:41:03;;;;;;;2.72;1.63;;;16.50;99.90;;;;;;10520082;28;20040;-63
2021/08/12 00:46:05;;;;;;;2.92;1.30;;;16.50;99.90;;;;;;10525909;28;20111;-64
2021/08/12 00:51:06;;;;;;;3.33;1.23;;;16.40;99.90;;;;;;10517344;28;20039;-64
2021/08/12 00:56:08;;;;;;;3.92;1.80;;;16.40;99.90;;;;;;10521059;28;20087;-65
2021/08/12 01:01:10;;;;;;;4.38;2.13;;;16.40;99.90;;;;;;10528880;28;20204;-65
2021/08/12 01:06:17;;;;;;;4.95;1.38;;;16.40;99.90;;;;;;10528528;28;20093;-64
2021/08/12 01:11:34;;;;;;;7.00;2.00;;;16.40;99.90;;;;;;10531754;28;20067;-64
2021/08/12 01:16:40;;;;;;;;;;;16.30;99.90;;;;;;10526222;28;20051;-64
2021/08/12 01:21:57;;;;;;;5.50;1.52;;;16.40;99.90;;;;;;10528702;28;19927;-64
2021/08/12 01:27:04;;;;;;;2.15;1.35;;;16.30;99.90;;;;;;10524805;28;20073;-64
2021/08/12 01:32:19;;;;;;;4.68;1.80;;;16.40;99.90;;;;;;10533580;28;20071;-64
2021/08/12 01:37:23;;;;;;;2.80;1.90;;;16.40;99.90;;;;;;10525403;28;20106;-63
2021/08/12 01:42:28;;;;;;;2.83;1.30;;;16.40;99.90;;;;;;10512333;28;21468;-64
2021/08/12 01:47:32;;;;;;;4.53;2.20;;;16.40;99.90;;;;;;10516623;28;20044;-63
2021/08/12 01:52:35;;;;;;;5.45;1.58;;;16.30;99.90;;;;;;10508678;28;20089;-64
2021/08/12 01:57:40;;;;;;;3.70;1.20;;;16.30;99.90;;;;;;10513889;28;20040;-64
2021/08/12 02:02:45;;;;;;;3.25;1.27;;;16.30;99.90;;;;;;10518608;28;20052;-64
2021/08/12 02:07:48;;;;;;;2.17;1.20;;;16.30;99.90;;;;;;10523815;28;20047;-64
2021/08/12 02:12:49;;;;;;;3.20;1.50;;;16.30;99.90;;;;;;10526303;28;20754;-64
2021/08/12 02:17:51;;;;;;;3.75;1.55;;;16.10;99.90;;;;;;10523073;28;20041;-64
2021/08/12 02:23:18;;;;;;;5.07;1.70;;;16.10;99.90;;;;;;10529005;28;20100;-63
2021/08/12 02:28:21;;;;;;;3.70;1.47;;;16.20;99.90;;;;;;10528413;28;20067;-63
2021/08/12 02:33:28;;;;;;;4.05;1.77;;;16.00;99.90;;;;;;10526877;28;20097;-64
2021/08/12 02:38:31;;;;;;;5.55;1.70;;;15.90;99.90;;;;;;10518726;28;20048;-63
2021/08/12 02:43:36;;;;;;;2.35;1.33;;;15.90;99.90;;;;;;10521384;28;20143;-64
2021/08/12 02:48:39;;;;;;;4.60;2.78;;;16.00;99.90;;;;;;10525564;28;20047;-63
2021/08/12 02:53:41;;;;;;;2.03;1.30;;;15.90;99.90;;;;;;10522348;28;20049;-63
2021/08/12 02:58:44;;;;;;;3.58;1.63;;;15.90;99.90;;;;;;10520432;28;20048;-63
2021/08/12 03:03:47;;;;;;;3.60;1.50;;;15.80;99.90;;;;;;10519038;28;20045;-64
2021/08/12 03:08:52;;;;;;;2.70;1.50;;;15.70;99.90;;;;;;10504179;28;20048;-64
2021/08/12 03:13:54;;;;;;;4.82;1.70;;;15.70;99.90;;;;;;10528779;28;20051;-64
2021/08/12 03:18:56;;;;;;;5.20;1.67;;;15.70;99.90;;;;;;10522626;28;20040;-64
2021/08/12 03:24:01;;;;;;;4.25;1.60;;;15.60;99.90;;;;;;10525767;28;20149;-64
2021/08/12 03:29:03;;;;;;;4.97;1.70;;;15.70;99.90;;;;;;10523044;28;20049;-64
2021/08/12 03:34:05;;;;;;;8.13;2.22;;;15.60;99.90;;;;;;10506081;28;20124;-64
2021/08/12 03:39:06;;;;;;;5.05;1.95;;;15.60;99.90;;;;;;10530176;28;20073;-64
2021/08/12 03:44:08;;;;;;;7.07;1.85;;;15.50;99.90;;;;;;10531113;28;20071;-64
2021/08/12 03:49:10;;;;;;;4.25;1.73;;;15.50;99.90;;;;;;10527751;28;20052;-63
2021/08/12 03:54:12;;;;;;;7.43;2.15;;;15.50;99.90;;;;;;10521586;28;20082;-63
2021/08/12 03:59:13;;;;;;;3.08;1.80;;;15.40;99.90;;;;;;10518960;28;20074;-63
2021/08/12 04:04:15;;;;;;;5.72;1.88;;;15.40;99.90;;;;;;10513306;28;20048;-63
2021/08/12 04:09:17;;;;;;;4.47;2.08;;;15.30;99.90;;;;;;10510709;28;20056;-69
2021/08/12 04:14:19;;;;;;;8.82;1.95;;;15.40;99.90;;;;;;10495375;28;20040;-69
2021/08/12 04:19:22;;;;;;;2.65;1.67;;;15.50;99.90;;;;;;10494769;28;20134;-69
2021/08/12 04:24:24;;;;;;;3.95;1.85;;;15.50;99.90;;;;;;10511737;28;20048;-69
2021/08/12 04:29:26;;;;;;;3.38;1.95;;;15.40;99.90;;;;;;10514026;28;20568;-68
2021/08/12 04:34:27;;;;;;;2.50;1.85;;;15.30;99.90;;;;;;10522821;28;20110;-69
2021/08/12 04:39:29;;;;;;;6.78;2.20;;;15.40;99.90;;;;;;10506701;28;20041;-69
2021/08/12 04:44:30;;;;;;;7.30;1.90;;;15.50;99.90;;;;;;10523132;28;20085;-69
2021/08/12 04:49:32;;;;;;;5.15;2.08;;;15.60;99.90;;;;;;10531446;28;20109;-69
2021/08/12 04:54:34;;;;;;;7.05;2.35;;;15.60;99.90;;;;;;10534373;28;20487;-69
2021/08/12 04:59:35;;;;;;;5.28;2.47;;;15.70;99.90;;;;;;10532774;28;20051;-69
2021/08/12 05:04:37;;;;;;;6.82;2.33;;;15.80;99.90;;;;;;10523026;28;20048;-68
2021/08/12 05:09:39;;;;;;;4.60;2.47;;;16.00;99.90;;;;;;10521455;28;20130;-68
2021/08/12 05:14:40;;;;;;;6.32;2.13;;;16.10;99.90;;;;;;10526475;28;20158;-69
2021/08/12 05:19:43;;;;;;;3.53;1.60;;;16.20;99.90;;;;;;10531916;28;20683;-69
2021/08/12 05:24:45;;;;;;;6.93;2.50;;;16.40;99.90;;;;;;10520550;28;20060;-69
2021/08/12 05:29:47;;;;;;;3.45;2.00;;;16.40;99.90;;;;;;10529903;28;20044;-69
2021/08/12 05:34:48;;;;;;;3.55;1.98;;;16.60;99.90;;;;;;10497468;28;20124;-69
2021/08/12 05:39:50;;;;;;;6.07;2.00;;;16.80;99.90;;;;;;10531980;28;20121;-70
2021/08/12 05:44:52;;;;;;;6.97;2.30;;;16.90;99.90;;;;;;10519831;28;20044;-70
2021/08/12 05:49:53;;;;;;;4.70;1.58;;;17.10;99.90;;;;;;10530725;28;20062;-70
2021/08/12 05:54:55;;;;;;;8.43;2.20;;;17.30;99.90;;;;;;10527233;28;20106;-70
2021/08/12 05:59:56;;;;;;;3.20;1.90;;;17.40;99.90;;;;;;10520031;28;20427;-70
2021/08/12 06:04:58;;;;;;;4.00;2.00;;;17.60;99.90;;;;;;10520766;28;20051;-70
2021/08/12 06:10:00;;;;;;;2.67;1.52;;;17.80;99.90;;;;;;10503147;28;20048;-69
2021/08/12 06:15:03;;;;;;;3.78;2.03;;;18.00;99.90;;;;;;10527295;28;20044;-69
2021/08/12 06:20:05;;;;;;;4.13;1.77;;;18.10;99.90;;;;;;10527103;28;20715;-69
2021/08/12 06:25:07;;;;;;;3.47;1.70;;;18.20;99.90;;;;;;10514027;28;20524;-69
2021/08/12 06:30:11;;;;;;;4.05;2.05;;;18.40;99.90;;;;;;10500136;28;20047;-68
2021/08/12 06:35:12;;;;;;;10.50;2.03;;;18.60;99.90;;;;;;10516783;28;20084;-67
2021/08/12 06:40:16;;;;;;;2.85;1.60;;;18.80;99.90;;;;;;10513677;28;20097;-67
2021/08/12 06:45:19;;;;;;;4.15;1.70;;;19.00;99.90;;;;;;10509002;28;20052;-68
2021/08/12 06:50:22;;;;;;;2.58;1.35;;;19.20;99.90;;;;;;10516028;28;20075;-69
2021/08/12 06:55:24;;;;;;;3.08;1.67;;;19.30;99.90;;;;;;10517098;28;20059;-69
2021/08/12 07:00:26;;;;;;;7.25;1.92;;;19.40;99.90;;;;;;10516946;28;20044;-69
2021/08/12 07:05:27;;;;;;;6.95;2.42;;;19.50;99.90;;;;;;10520138;28;20055;-68
2021/08/12 07:10:29;;;;;;;5.38;2.05;;;19.50;99.90;;;;;;10523494;28;20737;-69
2021/08/12 07:15:31;;;;;;;5.20;2.35;;;19.70;99.90;;;;;;10523763;28;20069;-69
2021/08/12 07:20:37;;;;;;;5.07;2.10;;;19.70;99.90;;;;;;10504779;28;20067;-69
2021/08/12 07:25:38;;;;;;;3.63;2.33;;;19.90;99.90;;;;;;10508714;28;20059;-68
2021/08/12 07:30:40;;;;;;;10.98;2.20;;;20.20;99.90;;;;;;10522050;28;20071;-68
2021/08/12 07:35:41;;;;;;;5.88;3.13;;;20.10;99.90;;;;;;10520892;28;20441;-69
2021/08/12 07:40:43;;;;;;;5.20;2.75;;;20.10;99.90;;;;;;10521087;28;20079;-69
2021/08/12 07:45:45;;;;;;;6.90;2.90;;;20.20;99.90;;;;;;10520629;28;20097;-68
2021/08/12 07:50:47;;;;;;;6.30;2.58;;;20.30;99.90;;;;;;10501223;28;20055;-69
2021/08/12 07:55:49;;;;;;;6.07;2.65;;;20.40;99.90;;;;;;10517322;28;20052;-68
2021/08/12 08:00:51;;;;;;;6.93;2.05;;;20.50;99.90;;;;;;10514164;28;20553;-69
2021/08/12 08:05:52;;;;;;;7.03;2.53;;;20.80;99.90;;;;;;10517956;28;20033;-68
2021/08/12 08:10:55;;;;;;;4.57;2.33;;;20.90;99.90;;;;;;10525603;28;20052;-69
2021/08/12 08:15:57;;;;;;;4.93;3.05;;;21.00;99.90;;;;;;10534507;28;20052;-62
2021/08/12 08:20:59;;;;;;;6.50;2.25;;;21.00;99.90;;;;;;10526443;28;20490;-61
2021/08/12 08:26:01;;;;;;;2.95;2.15;;;21.10;99.90;;;;;;10523208;28;20051;-62
2021/08/12 08:31:03;;;;;;;7.85;2.80;;;21.50;99.90;;;;;;10531658;28;20112;-61
2021/08/12 08:36:05;;;;;;;10.02;2.75;;;21.80;99.90;;;;;;10529387;28;20077;-62
2021/08/12 08:41:08;;;;;;;6.30;2.83;;;22.00;99.90;;;;;;10534536;28;20048;-61
2021/08/12 08:46:10;;;;;;;3.75;2.13;;;22.20;99.90;;;;;;10524454;28;20478;-62
2021/08/12 08:51:14;;;;;;;4.97;2.15;;;22.30;99.90;;;;;;10531201;28;20056;-62
2021/08/12 08:56:18;;;;;;;7.05;2.58;;;22.60;99.90;;;;;;10502648;28;20411;-62
2021/08/12 09:01:20;;;;;;;5.47;2.10;;;22.70;99.90;;;;;;10519975;28;20047;-62
2021/08/12 09:06:22;;;;;;;6.97;2.20;;;23.00;99.90;;;;;;10525275;28;20479;-62
2021/08/12 09:11:26;;;;;;;5.70;1.80;;;23.40;99.90;;;;;;10517554;28;20052;-61
2021/08/12 09:16:37;;;;;;;4.75;2.83;;;23.80;99.90;;;;;;10512701;28;20048;-61
2021/08/12 09:21:39;;;;;;;7.70;2.28;;;24.00;99.90;;;;;;10527988;28;20072;-61
2021/08/12 09:26:42;;;;;;;4.72;2.38;;;24.20;99.90;;;;;;10525488;28;20070;-64
2021/08/12 09:32:02;;;;;;;3.42;2.25;;;24.40;99.90;;;;;;10504408;28;20132;-64
2021/08/12 09:37:05;;;;;;;4.60;2.08;;;24.30;99.90;;;;;;10520896;28;20051;-64
2021/08/12 09:42:09;;;;;;;5.47;2.00;;;24.60;99.90;;;;;;10525430;28;20500;-64
2021/08/12 09:47:28;;;;;;;9.02;2.03;;;24.90;99.90;;;;;;10524451;28;20097;-65
2021/08/12 09:52:36;;;;;;;7.25;2.10;;;24.90;99.30;;;;;;10524660;28;20048;-64
2021/08/12 09:57:47;;;;;;;6.95;2.90;;;25.00;99.90;;;;;;10530958;28;20476;-65
2021/08/12 10:02:49;;;;;;;2.92;2.63;;;24.80;99.90;;;;;;10522459;28;20102;-64
2021/08/12 10:07:53;;;;;;;5.80;2.95;;;25.20;98.70;;;;;;10530135;28;20046;-65
2021/08/12 10:13:00;;;;;;;9.88;3.50;;;25.30;97.40;;;;;;10530252;28;20031;-64
2021/08/12 10:18:03;;;;;;;5.57;2.72;;;25.00;97.30;;;;;;10519701;28;20049;-64
2021/08/12 10:23:06;;;;;;;5.95;2.50;;;25.30;96.80;;;;;;10521306;28;20044;-64
2021/08/12 10:28:10;;;;;;;4.35;2.78;;;25.30;96.40;;;;;;10502890;28;20064;-65
2021/08/12 10:33:12;;;;;;;4.38;2.63;;;25.70;97.10;;;;;;10517854;28;20109;-65
2021/08/12 10:38:14;;;;;;;5.47;2.13;;;25.80;96.50;;;;;;10519441;28;20067;-64
2021/08/12 10:43:23;;;;;;;6.35;3.00;;;25.80;96.60;;;;;;10528858;28;20051;-64
2021/08/12 10:48:26;;;;;;;6.15;2.85;;;26.20;96.00;;;;;;10527219;28;20126;-61
2021/08/12 10:53:28;;;;;;;7.13;2.40;;;26.30;94.50;;;;;;10522065;28;20044;-59
2021/08/12 10:58:30;;;;;;;6.22;2.80;;;26.30;95.00;;;;;;10526715;28;20058;-60
2021/08/12 11:03:34;;;;;;;6.20;2.45;;;26.70;94.30;;;;;;10518638;28;20452;-60
2021/08/12 11:08:59;;;;;;;5.10;2.17;;;26.60;92.70;;;;;;10523684;28;20066;-59
2021/08/12 11:14:05;;;;;;;5.78;2.72;;;26.50;91.90;;;;;;10524587;28;20100;-60
2021/08/12 11:19:25;;;;;;;4.47;2.30;;;26.30;91.50;;;;;;10516568;28;20051;-61
2021/08/12 11:24:27;;;;;;;7.20;2.60;;;26.20;92.40;;;;;;10514728;28;20104;-59
2021/08/12 11:29:28;;;;;;;9.98;1.85;;;26.40;92.10;;;;;;10516247;28;20485;-61
2021/08/12 11:34:56;;;;;;;4.82;1.60;;;26.40;90.30;;;;;;10515135;28;20490;-60
2021/08/12 11:40:05;;;;;;;6.75;2.15;;;26.50;90.30;;;;;;10504690;28;20071;-60
2021/08/12 11:45:18;;;;;;;8.02;2.05;;;26.50;88.20;;;;;;10508036;28;20068;-70
2021/08/12 11:50:24;;;;;;;2.95;1.83;;;26.70;90.30;;;;;;10516380;28;20609;-71
2021/08/12 11:55:26;;;;;;;4.68;1.98;;;27.20;89.00;;;;;;10498129;28;20776;-69
2021/08/12 12:00:34;;;;;;;5.05;2.20;;;27.10;89.50;;;;;;10505877;28;20148;-69
2021/08/12 12:05:38;;;;;;;3.45;1.52;;;27.20;86.60;;;;;;10521354;28;20040;-70
2021/08/12 12:10:45;;;;;;;5.00;1.83;;;27.20;88.10;;;;;;10527083;28;20171;-71
2021/08/12 12:15:52;;;;;;;4.35;2.08;;;27.00;85.40;;;;;;10526221;28;20093;-70
2021/08/12 12:21:01;;;;;;;4.03;1.67;;;27.30;87.20;;;;;;10525101;28;20044;-70
2021/08/12 12:26:04;;;;;;;4.72;1.77;;;27.50;83.60;;;;;;10510289;28;20131;-72
2021/08/12 12:31:16;;;;;;;4.88;1.65;;;27.70;85.60;;;;;;10518379;28;20044;-71
2021/08/12 12:36:18;;;;;;;2.55;1.75;;;27.60;82.10;;;;;;10522373;28;20048;-69
2021/08/12 12:41:22;;;;;;;5.07;2.03;;;27.80;83.40;;;;;;10515062;28;20081;-69
2021/08/12 12:46:30;;;;;;;3.33;1.80;;;27.30;81.10;;;;;;10516585;28;20080;-68
2021/08/12 12:51:32;;;;;;;5.68;1.55;;;27.70;84.70;;;;;;10519884;28;20048;-69
2021/08/12 12:56:34;;;;;;;3.85;1.88;;;27.40;83.10;;;;;;10529123;28;20048;-69
2021/08/12 13:01:36;;;;;;;5.68;1.77;;;27.00;83.80;;;;;;10526257;28;20040;-69
2021/08/12 13:06:39;;;;;;;4.70;2.17;;;27.30;87.80;;;;;;10528444;28;20036;-69
2021/08/12 13:11:42;;;;;;;4.32;1.73;;;27.60;87.20;;;;;;10525649;28;20058;-69
2021/08/12 13:16:49;;;;;;;3.83;2.05;;;27.60;83.70;;;;;;10532278;28;20122;-69
2021/08/12 13:21:56;;;;;;;4.32;2.47;;;28.00;81.40;;;;;;10516203;28;20467;-69
2021/08/12 13:26:59;;;;;;;3.53;2.22;;;28.00;81.70;;;;;;10528175;28;20072;-69
2021/08/12 13:32:10;;;;;;;4.20;2.55;;;27.90;82.70;;;;;;10530547;28;20064;-69
2021/08/12 13:37:11;;;;;;;4.53;2.15;;;27.90;79.20;;;;;;10508039;28;20047;-69
2021/08/12 13:42:13;;;;;;;5.45;2.20;;;28.10;80.30;;;;;;10528335;28;20071;-69
2021/08/12 13:47:15;;;;;;;4.88;2.28;;;27.80;79.50;;;;;;10522991;28;20048;-68
2021/08/12 13:52:17;;;;;;;9.70;2.22;;;28.30;81.90;;;;;;10530030;28;20075;-69
2021/08/12 13:57:19;;;;;;;3.25;1.65;;;28.20;79.00;;;;;;10521630;28;20519;-69
2021/08/12 14:02:21;;;;;;;2.72;1.65;;;28.30;79.30;;;;;;10525388;28;20105;-68
2021/08/12 14:07:23;;;;;;;4.00;1.80;;;28.10;77.90;;;;;;10516071;28;20123;-68
2021/08/12 14:12:24;;;;;;;5.03;1.77;;;28.60;79.50;;;;;;10515025;28;20059;-69
2021/08/12 14:17:26;;;;;;;4.03;1.83;;;29.00;78.80;;;;;;10521557;28;20481;-68
2021/08/12 14:22:32;;;;;;;3.83;1.90;;;29.10;79.30;;;;;;10519523;28;20079;-68
2021/08/12 14:27:33;;;;;;;4.85;1.83;;;29.10;78.80;;;;;;10517652;28;20052;-68
2021/08/12 14:32:35;;;;;;;3.95;1.75;;;29.70;76.80;;;;;;10519634;28;20580;-68
2021/08/12 14:37:37;;;;;;;4.10;2.85;;;30.10;77.00;;;;;;10523779;28;20105;-68
2021/08/12 14:42:38;;;;;;;5.22;1.92;;;29.70;76.20;;;;;;10523663;28;20082;-69
2021/08/12 14:47:40;;;;;;;5.88;3.50;;;29.30;73.60;;;;;;10524135;28;20101;-69
2021/08/12 14:52:42;;;;;;;4.45;1.98;;;29.30;75.40;;;;;;10517386;28;20051;-69
2021/08/12 14:57:44;;;;;;;6.82;1.83;;;29.50;74.00;;;;;;10517540;28;20067;-69
2021/08/12 15:02:45;;;;;;;8.57;1.77;;;29.30;74.00;;;;;;10492889;28;20438;-68
2021/08/12 15:07:48;;;;;;;4.15;1.58;;;29.60;74.50;;;;;;10523933;28;20040;-68
2021/08/12 15:12:50;;;;;;;3.78;2.08;;;30.10;70.20;;;;;;10532214;28;20130;-59
2021/08/12 15:17:53;;;;;;;4.40;1.90;;;29.80;70.30;;;;;;10477279;28;20044;-70
2021/08/12 15:22:55;;;;;;;5.90;2.22;;;29.90;68.20;;;;;;10520582;28;20052;-68
2021/08/12 15:27:57;;;;;;;2.90;1.70;;;29.60;69.50;;;;;;10500989;28;20081;-69
2021/08/12 15:32:58;;;;;;;2.63;1.75;;;29.80;68.10;;;;;;10513454;28;20092;-69
2021/08/12 15:38:04;;;;;;;2.35;1.88;;;31.00;69.40;;;;;;10515359;28;20086;-68
2021/08/12 15:43:06;;;;;;;4.28;2.20;;;31.10;68.40;;;;;;10505730;28;20039;-69
2021/08/12 15:48:11;;;;;;;4.70;1.63;;;30.90;66.00;;;;;;10521299;28;20043;-68
2021/08/12 15:53:13;;;;;;;4.97;1.85;;;31.00;63.80;;;;;;10509701;28;20058;-69
2021/08/12 15:58:17;;;;;;;4.18;1.85;;;29.90;66.90;;;;;;10525078;28;20056;-68
2021/08/12 16:03:19;;;;;;;5.60;1.97;;;30.60;66.60;;;;;;10499978;28;20064;-69
2021/08/12 16:08:20;;;;;;;2.75;2.13;;;30.60;64.80;;;;;;10522539;28;20044;-69
2021/08/12 16:13:25;;;;;;;6.90;2.55;;;31.10;68.90;;;;;;10515653;28;20097;-69
2021/08/12 16:18:27;;;;;;;4.18;1.90;;;31.30;66.90;;;;;;10519339;28;20526;-69
2021/08/12 16:23:29;;;;;;;2.88;2.17;;;30.60;66.00;;;;;;10521563;28;20059;-70
2021/08/12 16:28:30;;;;;;;6.18;2.35;;;30.60;68.60;;;;;;10517931;28;20052;-69
2021/08/12 16:33:32;;;;;;;5.30;2.42;;;30.30;69.60;;;;;;10520229;28;20087;-71
2021/08/12 16:38:34;;;;;;;4.50;2.30;;;30.60;69.40;;;;;;10505349;28;20039;-71
2021/08/12 16:43:36;;;;;;;3.33;2.40;;;30.60;68.20;;;;;;10522827;28;20097;-70
2021/08/12 16:48:38;;;;;;;4.25;2.08;;;30.90;65.90;;;;;;10523716;28;20073;-71
2021/08/12 16:53:39;;;;;;;3.35;1.90;;;30.50;67.90;;;;;;10498557;28;20114;-71
2021/08/12 16:58:41;;;;;;;6.28;2.25;;;29.80;69.40;;;;;;10536558;28;20071;-71
2021/08/12 17:03:43;;;;;;;5.30;2.72;;;29.60;67.80;;;;;;10522216;28;20044;-70
2021/08/12 17:08:52;;;;;;;4.70;2.55;;;29.60;72.00;;;;;;10528134;28;20135;-71
2021/08/12 17:13:54;;;;;;;4.40;2.20;;;29.50;68.90;;;;;;10529832;28;20067;-71
2021/08/12 17:18:55;;;;;;;4.32;2.22;;;29.80;70.70;;;;;;10532625;28;20051;-72
2021/08/12 17:23:57;;;;;;;5.10;2.45;;;29.60;71.10;;;;;;10532831;28;20055;-70
2021/08/12 17:28:59;;;;;;;3.60;2.65;;;29.80;70.50;;;;;;10522412;28;20452;-71
2021/08/12 17:34:01;;;;;;;4.05;2.30;;;29.80;70.00;;;;;;10532402;28;20048;-70
2021/08/12 17:39:03;;;;;;;7.60;2.40;;;29.80;69.60;;;;;;10524301;28;20040;-70
2021/08/12 17:44:05;;;;;;;6.40;2.70;;;29.50;70.90;;;;;;10523962;28;20097;-72
2021/08/12 17:49:36;;;;;;;3.85;2.58;;;29.50;71.50;;;;;;10527565;28;20052;-72
2021/08/12 17:54:38;;;;;;;8.73;2.10;;;29.60;72.20;;;;;;10523612;28;20549;-72
2021/08/12 17:59:39;;;;;;;6.03;2.58;;;29.00;73.40;;;;;;10525014;28;20061;-72
2021/08/12 18:04:41;;;;;;;11.63;3.22;;;28.50;75.70;;;;;;10523559;28;20074;-70
2021/08/12 18:09:47;;;;;;;5.43;3.10;;;28.00;77.80;;;;;;10508655;28;20068;-71
2021/08/12 18:14:49;;;;;;;7.43;3.55;;;27.50;78.90;;;;;;10512977;28;20052;-72
2021/08/12 18:19:55;;;;;;;8.25;3.45;;;27.20;80.40;;;;;;10503477;28;20054;-72
2021/08/12 18:24:57;;;;;;;6.03;3.78;;;26.80;81.90;;;;;;10510943;28;20063;-72
2021/08/12 18:29:59;;;;;;;7.05;4.00;;;26.50;83.40;;;;;;10530825;28;20051;-73
2021/08/12 18:35:02;;;;;;;7.07;3.65;;;26.20;85.30;;;;;;10511753;28;27199;-72
2021/08/12 18:40:06;;;;;;;9.82;3.35;;;25.90;86.00;;;;;;10527992;28;20055;-72
2021/08/12 18:45:09;;;;;;;7.28;2.92;;;25.60;87.10;;;;;;10504767;28;20055;-72
2021/08/12 18:50:11;;;;;;;3.53;2.58;;;25.40;87.50;;;;;;10499180;28;20056;-72
2021/08/12 18:55:13;;;;;;;8.48;3.35;;;25.20;88.90;;;;;;10504915;28;20067;-72
2021/08/12 19:00:16;;;;;;;8.48;3.42;;;24.90;90.50;;;;;;10493734;28;20052;-72
2021/08/12 19:05:19;;;;;;;11.40;2.90;;;24.60;90.40;;;;;;10499978;28;20045;-73
2021/08/12 19:10:21;;;;;;;10.63;3.50;;;24.20;92.20;;;;;;10490346;28;20089;-73
2021/08/12 19:15:23;;;;;;;11.32;3.10;;;24.00;93.10;;;;;;10511286;28;20048;-72
2021/08/12 19:20:25;;;;;;;9.23;3.38;;;23.80;93.90;;;;;;10521548;28;21185;-72
2021/08/12 19:25:28;;;;;;;10.25;3.75;;;23.50;94.60;;;;;;10517640;28;20048;-73
2021/08/12 19:30:30;;;;;;;13.18;3.97;;;23.40;95.40;;;;;;10529650;28;20048;-72
2021/08/12 19:35:32;;;;;;;12.13;3.83;;;23.20;96.30;;;;;;10531742;28;20060;-74
2021/08/12 19:40:34;;;;;;;10.57;3.30;;;23.00;97.00;;;;;;10524373;28;20108;-65
2021/08/12 19:45:36;;;;;;;12.73;3.45;;;22.70;97.90;;;;;;10550190;28;20055;-65
2021/08/12 19:50:37;;;;;;;13.02;2.95;;;22.60;98.90;;;;;;10529887;28;20044;-65
2021/08/12 19:55:39;;;;;;;7.65;3.17;;;22.40;99.90;;;;;;10527228;28;20082;-66
2021/08/12 20:00:41;;;;;;;6.78;3.22;;;22.30;99.90;;;;;;10548908;28;20052;-66
2021/08/12 20:05:44;;;;;;;9.88;3.78;;;22.20;99.90;;;;;;10520772;28;20111;-66
2021/08/12 20:10:47;;;;;;;8.38;3.28;;;22.20;99.90;;;;;;10555779;28;20048;-64
2021/08/12 20:15:48;;;;;;;15.57;3.53;;;22.10;99.90;;;;;;10562941;28;20048;-65
2021/08/12 20:20:50;;;;;;;5.82;3.83;;;22.10;99.90;;;;;;10546300;28;20163;-67
2021/08/12 20:25:52;;;;;;;11.02;3.63;;;22.10;99.90;;;;;;10558447;28;20043;-66
2021/08/12 20:30:54;;;;;;;13.75;4.07;;;21.90;99.90;;;;;;10531288;28;20056;-67
2021/08/12 20:35:55;;;;;;;8.02;2.97;;;21.80;99.90;;;;;;10524347;28;20398;-65
2021/08/12 20:40:57;;;;;;;11.77;3.17;;;21.80;99.90;;;;;;10553942;28;20073;-64
2021/08/12 20:45:59;;;;;;;8.63;3.13;;;21.70;99.90;;;;;;10541709;28;20036;-66
2021/08/12 20:51:01;;;;;;;7.45;3.13;;;21.70;99.90;;;;;;10548598;28;20047;-66
2021/08/12 20:56:05;;;;;;;10.45;4.45;;;21.60;99.90;;;;;;10548816;28;20044;-67
2021/08/12 21:01:06;;;;;;;10.10;4.10;;;21.60;99.90;;;;;;10555274;28;20044;-67
2021/08/12 21:06:08;;;;;;;12.43;4.07;;;21.50;99.90;;;;;;10528308;28;20063;-67
2021/08/12 21:11:11;;;;;;;9.00;3.80;;;21.40;99.90;;;;;;10527246;28;20393;-66
2021/08/12 21:16:13;;;;;;;9.30;3.50;;;21.30;99.90;;;;;;10535807;27;20140;-65
2021/08/12 21:21:15;;;;;;;11.05;3.53;;;21.10;99.90;;;;;;10526653;28;20101;-66
2021/08/12 21:26:17;;;;;;;7.88;3.00;;;21.00;99.90;;;;;;10524985;28;20080;-65
2021/08/12 21:31:19;;;;;;;9.55;3.83;;;20.90;99.90;;;;;;10522432;28;20048;-66
2021/08/12 21:36:21;;;;;;;7.07;4.32;;;20.70;99.90;;;;;;10525383;28;20056;-66
2021/08/12 21:41:23;;;;;;;9.75;4.00;;;20.70;99.90;;;;;;10522221;28;20044;-65
2021/08/12 21:46:25;;;;;;;9.07;4.38;;;20.70;99.90;;;;;;10519880;28;20933;-65
2021/08/12 21:51:27;;;;;;;9.00;3.63;;;20.60;99.90;;;;;;10524758;28;20048;-65
2021/08/12 21:56:32;;;;;;;10.60;4.25;;;20.50;99.90;;;;;;10522120;28;20058;-66
2021/08/12 22:01:33;;;;;;;9.07;4.07;;;20.50;99.90;;;;;;10525572;28;20435;-65
2021/08/12 22:06:35;;;;;;;8.35;3.45;;;20.40;99.90;;;;;;10526035;28;20071;-66
2021/08/12 22:11:37;;;;;;;7.20;3.65;;;20.30;99.90;;;;;;10526073;28;20064;-64
2021/08/12 22:16:39;;;;;;;6.50;3.50;;;20.20;99.90;;;;;;10531000;28;20086;-65
2021/08/12 22:21:40;;;;;;;10.52;4.30;;;20.10;99.90;;;;;;10509654;28;20072;-65
2021/08/12 22:26:42;;;;;;;6.80;3.83;;;20.10;99.90;;;;;;10520972;28;20043;-65
2021/08/12 22:31:46;;;;;;;8.98;4.03;;;20.00;99.90;;;;;;10531227;28;20083;-65
2021/08/12 22:36:48;;;;;;;8.52;4.18;;;20.00;99.90;;;;;;10524994;28;20109;-65
2021/08/12 22:41:50;;;;;;;6.30;3.75;;;19.90;99.90;;;;;;10518558;28;20040;-65
2021/08/12 22:46:51;;;;;;;5.78;3.55;;;19.80;99.90;;;;;;10526337;28;20047;-66
2021/08/12 22:51:53;;;;;;;5.57;3.60;;;19.70;99.90;;;;;;10523500;28;20508;-64
2021/08/12 22:56:55;;;;;;;9.02;3.92;;;19.70;99.90;;;;;;10523942;28;20101;-65
2021/08/12 23:01:59;;;;;;;7.60;3.28;;;19.50;99.90;;;;;;10530100;28;20478;-65
2021/08/12 23:07:05;;;;;;;6.32;4.13;;;19.50;99.90;;;;;;10522753;28;20055;-65
2021/08/12 23:12:08;;;;;;;7.78;3.63;;;19.50;99.90;;;;;;10531300;28;20097;-64
2021/08/12 23:17:17;;;;;;;9.48;4.10;;;19.40;99.90;;;;;;10525164;28;20053;-65
2021/08/12 23:22:21;;;;;;;7.75;3.88;;;19.30;99.90;;;;;;10524844;28;20474;-64
2021/08/12 23:27:29;;;;;;;8.65;4.78;;;19.20;99.90;;;;;;10527764;28;20145;-64
2021/08/12 23:32:33;;;;;;;10.13;3.90;;;19.00;99.90;;;;;;10523519;28;20089;-65
2021/08/12 23:37:36;;;;;;;6.35;3.50;;;18.90;99.90;;;;;;10520919;28;20052;-64
2021/08/12 23:42:40;;;;;;;10.60;3.80;;;18.90;99.90;;;;;;10520594;28;20048;-65
2021/08/12 23:47:43;;;;;;;9.50;3.60;;;18.90;99.90;;;;;;10519642;28;20043;-64
2021/08/12 23:52:45;;;;;;;7.88;3.85;;;18.90;99.90;;;;;;10517680;28;20052;-64
2021/08/12 23:57:48;;;;;;;7.68;3.70;;;18.80;99.90;;;;;;10523666;28;20048;-65
